METAR Data
IDs: Format: Raw Decoded Include TAF

Data at: 1517 UTC 16 Feb 2019

METAR for:KHAO (Hamilton/Butler Cnty, OH, US)
Text:KHAO 161453Z AUTO 03007KT 10SM OVC018 M04/M08 A3008 RMK AO2 SLP193 T10391078 51006
Temperature: -3.9°C ( 25°F)
Dewpoint: -7.8°C ( 18°F) [RH = 74%]
Pressure (altimeter):30.08 inches Hg (1018.7 mb) [Sea level pressure: 1019.3 mb]
Winds:from the NNE (30 degrees) at 8 MPH (7 knots; 3.6 m/s)
Visibility:10 or more sm (16+ km)
Ceiling:1800 feet AGL
Clouds: overcast cloud deck at 1800 feet AGL
QC Flag:automated observation with no human augmentation